TimePDT,TemperatureF,Dew PointF,Humidity,Sea Level PressureIn,VisibilityMPH,Wind Direction,Wind SpeedMPH,Gust SpeedMPH,PrecipitationIn,Events,Conditions,WindDirDegrees,DateUTC
12:00 AM,48.9,44.4,84,-9999,-9999.0,WSW,21.9,-,N/A,,Unknown,240,2013-04-27 07:00:00
1:00 AM,48.6,44.2,85,-9999,-9999.0,SW,21.9,-,N/A,,Unknown,230,2013-04-27 08:00:00
2:00 AM,48.7,44.1,84,-9999,-9999.0,WSW,20.7,-,N/A,,Unknown,250,2013-04-27 09:00:00
3:00 AM,50.2,43.0,76,-9999,-9999.0,WSW,19.6,-,N/A,,Unknown,240,2013-04-27 10:00:00
4:00 AM,51.8,40.3,65,-9999,-9999.0,West,20.7,-,N/A,,Unknown,260,2013-04-27 11:00:00
5:00 AM,49,43,72,,,SW,12.7,,,,,220,2013-04-27 12:00:00
5:00 AM,49.3,42.8,78,-9999,-9999.0,SW,12.7,-,N/A,,Unknown,220,2013-04-27 12:00:00
6:00 AM,49.1,43.5,81,-9999,-9999.0,SSW,13.8,-,N/A,,Unknown,200,2013-04-27 13:00:00
7:00 AM,49.6,43.2,78,-9999,-9999.0,WSW,18.4,-,N/A,,Unknown,250,2013-04-27 14:00:00
8:00 AM,51.1,42.6,73,-9999,-9999.0,West,15.0,23.0,N/A,,Unknown,280,2013-04-27 15:00:00
9:00 AM,52.0,42.6,70,-9999,-9999.0,West,26.5,-,N/A,,Unknown,280,2013-04-27 16:00:00
10:00 AM,49.6,43.7,80,-9999,-9999.0,SW,15.0,-,N/A,,Unknown,230,2013-04-27 17:00:00
11:00 AM,49,45,81,,,West,17.3,,,,,260,2013-04-27 18:00:00
11:00 AM,48.7,45.0,87,-9999,-9999.0,West,17.3,-,N/A,,Unknown,260,2013-04-27 18:00:00
12:00 PM,48.4,45.0,88,-9999,-9999.0,WSW,5.8,-,N/A,,Unknown,240,2013-04-27 19:00:00
1:00 PM,49.6,45.3,85,-9999,-9999.0,East,5.8,-,N/A,,Unknown,80,2013-04-27 20:00:00
2:00 PM,49.8,44.8,83,-9999,-9999.0,Calm,Calm,-,N/A,,Unknown,0,2013-04-27 21:00:00
3:00 PM,49.6,46.0,87,-9999,-9999.0,NW,3.5,-,N/A,,Unknown,320,2013-04-27 22:00:00
4:00 PM,48.6,47.1,95,-9999,-9999.0,WSW,19.6,-,N/A,,Unknown,250,2013-04-27 23:00:00
5:00 PM,50,48,89,,,West,18.4,,,,,270,2013-04-28 00:00:00
5:00 PM,49.8,47.7,92,-9999,-9999.0,West,18.4,-,N/A,,Unknown,270,2013-04-28 00:00:00
6:00 PM,50.2,46.4,87,-9999,-9999.0,West,23.0,-,N/A,,Unknown,280,2013-04-28 01:00:00
7:00 PM,50.4,46.4,86,-9999,-9999.0,West,21.9,-,N/A,,Unknown,280,2013-04-28 02:00:00
8:00 PM,49.5,46.6,90,-9999,-9999.0,West,23.0,-,N/A,,Unknown,270,2013-04-28 03:00:00
9:00 PM,48.0,46.4,94,-9999,-9999.0,West,24.2,-,N/A,,Unknown,260,2013-04-28 04:00:00
11:00 PM,48,46,92,,,West,24.2,,,,,270,2013-04-28 06:00:00
11:00 PM,48.2,46.4,93,-9999,-9999.0,West,24.2,-,N/A,,Unknown,270,2013-04-28 06:00:00